SKW5341 KSAN-KLAX
Flight info
| Callsign | SKW5341 |
|---|---|
| Flight time | N/A |
| Altitude | 10000 |
| Route | CWARD2 SLI |
| Aircraft | E75L/M-SDE3GILORVW/S |
Departure
| Time | 2026-05-06 01:45 |
|---|---|
| Airport | San Diego International Airport (KSAN) |
Arrival
| Time | N/A |
|---|---|
| Airport | Los Angeles International Airport (KLAX) |
| Time | Latitude | Longitude | Altitude | Speed | Heading |
|---|---|---|---|---|---|
| 2026-05-06 01:12 | 32.73454 | -117.20346 | 19 ft | 0 kts | 232° |
| 2026-05-06 01:30 | 32.73461 | -117.20335 | 19 ft | 3 kts | 232° |
| 2026-05-06 01:30 | 32.73467 | -117.20327 | 20 ft | 0 kts | 240° |
| 2026-05-06 01:31 | 32.73472 | -117.20315 | 21 ft | 3 kts | 240° |
| 2026-05-06 01:32 | 32.73482 | -117.20296 | 20 ft | 3 kts | 240° |
| 2026-05-06 01:32 | 32.73491 | -117.20277 | 21 ft | 3 kts | 240° |
| 2026-05-06 01:32 | 32.73499 | -117.20259 | 20 ft | 2 kts | 240° |
| 2026-05-06 01:32 | 32.73508 | -117.20241 | 21 ft | 2 kts | 240° |
| 2026-05-06 01:33 | 32.73518 | -117.20225 | 20 ft | 3 kts | 217° |
| 2026-05-06 01:33 | 32.73534 | -117.20218 | 20 ft | 3 kts | 175° |
| 2026-05-06 01:33 | 32.73550 | -117.20226 | 20 ft | 2 kts | 136° |
| 2026-05-06 01:33 | 32.73561 | -117.20241 | 20 ft | 3 kts | 114° |
| 2026-05-06 01:34 | 32.73566 | -117.20257 | 20 ft | 0 kts | 102° |
| 2026-05-06 01:34 | 32.73566 | -117.20256 | 20 ft | 0 kts | 102° |
| 2026-05-06 01:34 | 32.73565 | -117.20254 | 20 ft | 0 kts | 103° |
| 2026-05-06 01:34 | 32.73564 | -117.20249 | 20 ft | 1 kts | 105° |
| 2026-05-06 01:35 | 32.73562 | -117.20242 | 20 ft | 1 kts | 107° |
| 2026-05-06 01:35 | 32.73560 | -117.20232 | 23 ft | 1 kts | 110° |
| 2026-05-06 01:35 | 32.73555 | -117.20219 | 22 ft | 2 kts | 115° |
| 2026-05-06 01:35 | 32.73553 | -117.20215 | 22 ft | 0 kts | 116° |
| 2026-05-06 01:36 | 32.73550 | -117.20202 | 20 ft | 5 kts | 105° |
| 2026-05-06 01:37 | 32.73538 | -117.20136 | 20 ft | 12 kts | 103° |
| 2026-05-06 01:37 | 32.73511 | -117.20026 | 21 ft | 15 kts | 105° |
| 2026-05-06 01:37 | 32.73484 | -117.19905 | 23 ft | 15 kts | 107° |
| 2026-05-06 01:37 | 32.73453 | -117.19780 | 23 ft | 15 kts | 105° |
| 2026-05-06 01:38 | 32.73442 | -117.19737 | 21 ft | 5 kts | 107° |
| 2026-05-06 01:38 | 32.73427 | -117.19680 | 22 ft | 10 kts | 107° |
| 2026-05-06 01:38 | 32.73404 | -117.19583 | 21 ft | 15 kts | 105° |
| 2026-05-06 01:38 | 32.73372 | -117.19455 | 23 ft | 17 kts | 106° |
| 2026-05-06 01:39 | 32.73336 | -117.19306 | 18 ft | 20 kts | 105° |
| 2026-05-06 01:39 | 32.73295 | -117.19139 | 20 ft | 22 kts | 106° |
| 2026-05-06 01:39 | 32.73254 | -117.18966 | 21 ft | 22 kts | 105° |
| 2026-05-06 01:39 | 32.73210 | -117.18786 | 22 ft | 23 kts | 106° |
| 2026-05-06 01:40 | 32.73166 | -117.18600 | 22 ft | 25 kts | 107° |
| 2026-05-06 01:40 | 32.73115 | -117.18394 | 19 ft | 26 kts | 106° |
| 2026-05-06 01:40 | 32.73062 | -117.18178 | 16 ft | 28 kts | 107° |
| 2026-05-06 01:40 | 32.73006 | -117.17947 | 15 ft | 29 kts | 106° |
| 2026-05-06 01:41 | 32.72963 | -117.17767 | 14 ft | 0 kts | 105° |
| 2026-05-06 01:43 | 32.72956 | -117.17731 | 16 ft | 9 kts | 102° |
| 2026-05-06 01:44 | 32.72955 | -117.17662 | 15 ft | 8 kts | 78° |
| 2026-05-06 01:44 | 32.72982 | -117.17598 | 18 ft | 11 kts | 26° |
| 2026-05-06 01:44 | 32.73056 | -117.17737 | 16 ft | 45 kts | 286° |
| 2026-05-06 01:44 | 32.73223 | -117.18416 | 21 ft | 123 kts | 286° |
| 2026-05-06 01:45 | 32.73515 | -117.19613 | 371 ft | 163 kts | 285° |
| 2026-05-06 01:45 | 32.73840 | -117.20917 | 1468 ft | 169 kts | 286° |
| 2026-05-06 01:45 | 32.74237 | -117.22248 | 2452 ft | 174 kts | 298° |
| 2026-05-06 01:45 | 32.74965 | -117.23414 | 3500 ft | 178 kts | 310° |
| 2026-05-06 01:46 | 32.75799 | -117.24513 | 4565 ft | 178 kts | 309° |
| 2026-05-06 01:46 | 32.76588 | -117.25659 | 5506 ft | 186 kts | 306° |
| 2026-05-06 01:46 | 32.77389 | -117.27046 | 5946 ft | 215 kts | 302° |
| 2026-05-06 01:46 | 32.78178 | -117.28565 | 6866 ft | 221 kts | 301° |
| 2026-05-06 01:47 | 32.78993 | -117.30129 | 7946 ft | 227 kts | 302° |
| 2026-05-06 01:47 | 32.79953 | -117.31845 | 8225 ft | 274 kts | 306° |
| 2026-05-06 01:47 | 32.81096 | -117.33642 | 9476 ft | 275 kts | 308° |
| 2026-05-06 01:47 | 32.82324 | -117.35522 | 10139 ft | 308 kts | 308° |
| 2026-05-06 01:48 | 32.83748 | -117.37700 | 10104 ft | 357 kts | 308° |
| 2026-05-06 01:48 | 32.85277 | -117.40060 | 10364 ft | 345 kts | 308° |
| 2026-05-06 01:48 | 32.86693 | -117.42261 | 9745 ft | 329 kts | 307° |
| 2026-05-06 01:48 | 32.88036 | -117.44362 | 9683 ft | 310 kts | 307° |
| 2026-05-06 01:49 | 32.89327 | -117.46379 | 9638 ft | 302 kts | 307° |
| 2026-05-06 01:49 | 32.90573 | -117.48321 | 9581 ft | 287 kts | 308° |
| 2026-05-06 01:49 | 32.91752 | -117.50152 | 9675 ft | 269 kts | 308° |
| 2026-05-06 01:49 | 32.92894 | -117.51926 | 9928 ft | 278 kts | 308° |
| 2026-05-06 01:50 | 32.94080 | -117.53770 | 9988 ft | 280 kts | 308° |
| 2026-05-06 01:50 | 32.95321 | -117.55701 | 10035 ft | 308 kts | 308° |
| 2026-05-06 01:50 | 32.96652 | -117.57772 | 10070 ft | 328 kts | 308° |
| 2026-05-06 01:50 | 32.98056 | -117.59962 | 10033 ft | 335 kts | 308° |